Skip Navigation Links
NOAA logo - Click to go to the NOAA homepage
NOAA's National Weather Service
Alaska Aviation Weather Unit
  NWS logo - Click to go to the NWS homepage
Left Navbar Graphic     12 AKDT = 20 GMT

   
NOAA is celebrating 200 years of science, service, and stewardship. Visit the NOAA 200th celebration Web site to learn more.
USA.gov is the U.S. Government's official Web portal to all Federal, state and local government Web resources and services.
Facebook
NWS on Facebook

Important Change Regarding the AAWU Web Presence

 

Over the last several months, the AAWU has been working to navigate its webpages to a nationally supported server. Security, as well as other needs, have necessitated the change.  We have been given an extension for the site changeover while we diligently work at addressing feedback received. As of July 14, 2017, aawu.arh.noaa.gov will be discontinued. The new AAWU web address is weather.gov/aawu. It is now live and will run in-parallel with the old site until it is discontinued on July 14, 2017. Please continue to send any feedback or questions regarding the new webpages to nws.ar.aawu.webauthors@noaa.gov.  Thank you for your patience during this time of transition.
AAWU Home :: Display TAF Add Bookmark
TAF CYWJ 251738Z 2518/2523 31010KT P6SM BKN100 TEMPO 2518/2523 P6SM
     -SHRA SCT040 BKN060
    RMK NXT FCST WILL BE ISSUED AT 261415Z=

METAR CYWJ 251400Z 32007KT 30SM FEW016 SCT080 15/11 A2985 RMK CU1AC2 SLP115 DENSITY ALT 1000FT= METAR CYWJ 251500Z 30007KT 300V010 30SM BKN097 16/11 A2985 RMK AC5 SLP116 DENSITY ALT 1100FT= METAR CYWJ 251600Z 28006KT 30SM BKN097 16/12 A2986 RMK AC5 SLP118 DENSITY ALT 1100FT= METAR CYWJ 251700Z 30010KT 250V320 30SM FEW028 BKN100 18/11 A2985 RMK CU2AC3 SLP116 DENSITY ALT 1400FT= SPECI CYWJ 251710Z 31009KT 30SM FEW032 BKN100 19/11 A2985 RMK CU2AC3 WSHFT 1658 SLP116 DENSITY ALT 1400FT= METAR CYWJ 251800Z 32008KT 280V350 30SM SCT032 BKN100 20/12 A2985 RMK CU3AC2 SLP116 DENSITY ALT 1600FT= METAR CYWJ 251900Z 30009KT 270V340 30SM SCT025 BKN089 20/11 A2986 RMK SC4AS2 SLP117 DENSITY ALT 1500FT= METAR CYWJ 252000Z 32004KT 30SM SCT031 BKN095 20/12 A2985 RMK SC3AC3 SLP117 DENSITY ALT 1500FT=
 Alaska TAF Map

NOAA's National Weather Service
Alaska Aviation Weather Unit
6930 Sand Lake Road
Anchorage, AK 99502-1845
Disclaimer
Credits
Glossary
Privacy Policy
About Us
Career Opportunities
Contact AAWU Internet Services Site last modified: April, 17th 2012